Tollgate, Oregon
Current Conditions -  °F | °C
As of 2:56 AM on Thursday 18 Dec 2014 (Local Time) from KRDM Reporting Station
Broken Clouds Broken Clouds  
Wind Chill: 28°   Ceiling: 11000
Heat Index: 33°   Visibility: 10mi
Dew Point: 31°   Wind: 6mph
Humidity: 92%   Direction: 120°ESE
Pressure: 29.96"   Gusts: NA
Location:  44.3095°N, 121.588°W
Report Text: KRDM 181056Z AUTO 12005KT 10SM SCT050 BKN110 01/M01 A2996 RMK AO2 SLP161 T00061006
Loading
Personal Weather Stations






























Interactive Weather Map New forecast layout! Learn more

10-Day Weather Forecast

Advertisements
Track Severe Weather on mobile